Time;durP1;ratioP1;P1;durP2;ratioP2;P2;SDS_P1;SDS_P2;PMS_P1;PMS_P2;Temp;Humidity;BMP_temperature;BMP_pressure;BME280_temperature;BME280_humidity;BME280_pressure;Samples;Min_cycle;Max_cycle;Signal;HPM_P1;HPM_P2
2023/03/10 00:03:06;;;;;;;25.90;16.23;;;;;;;;;;10322460;28;20769;-84
2023/03/10 00:08:07;;;;;;;25.97;16.27;;;;;;;;;;10324859;28;20448;-86
2023/03/10 00:13:09;;;;;;;25.67;15.57;;;;;;;;;;10323863;28;20432;-85
2023/03/10 00:18:12;;;;;;;26.27;16.37;;;;;;;;;;10324699;28;20433;-86
2023/03/10 00:23:14;;;;;;;26.27;17.03;;;;;;;;;;10323911;28;20468;-85
2023/03/10 00:28:16;;;;;;;26.80;17.15;;;;;;;;;;10324503;28;20420;-86
2023/03/10 00:33:19;;;;;;;25.70;16.92;;;;;;;;;;10326110;28;20441;-85
2023/03/10 00:38:21;;;;;;;26.20;17.17;;;;;;;;;;10323970;28;20437;-84
2023/03/10 00:43:23;;;;;;;25.40;16.87;;;;;;;;;;10323678;28;20883;-85
2023/03/10 00:48:26;;;;;;;26.02;17.25;;;;;;;;;;10324802;28;20460;-85
2023/03/10 00:53:29;;;;;;;25.17;17.50;;;;;;;;;;10323267;28;20950;-86
2023/03/10 00:58:32;;;;;;;25.90;17.33;;;;;;;;;;10327707;28;20483;-86
2023/03/10 01:03:36;;;;;;;25.63;17.50;;;;;;;;;;10331379;28;20413;-86
2023/03/10 01:08:38;;;;;;;26.60;17.48;;;;;;;;;;10325517;28;20432;-85
2023/03/10 01:13:40;;;;;;;27.38;18.77;;;;;;;;;;10330415;28;20459;-85
2023/03/10 01:18:43;;;;;;;30.30;17.97;;;;;;;;;;10331770;28;20830;-86
2023/03/10 01:23:46;;;;;;;35.85;18.85;;;;;;;;;;10332615;28;20416;-85
2023/03/10 01:28:48;;;;;;;29.60;18.23;;;;;;;;;;10330540;28;20432;-85
2023/03/10 01:33:51;;;;;;;32.05;18.83;;;;;;;;;;10331575;28;20424;-85
2023/03/10 01:38:54;;;;;;;28.25;18.42;;;;;;;;;;10329512;28;20427;-86
2023/03/10 01:43:57;;;;;;;28.67;17.52;;;;;;;;;;10329567;28;20416;-86
2023/03/10 01:49:04;;;;;;;28.70;17.40;;;;;;;;;;10330276;28;20421;-85
2023/03/10 01:54:10;;;;;;;26.92;17.00;;;;;;;;;;10328887;28;20429;-86
2023/03/10 01:59:13;;;;;;;26.30;16.65;;;;;;;;;;10328377;28;20508;-85
2023/03/10 02:04:22;;;;;;;27.88;17.27;;;;;;;;;;10329240;28;20455;-85
2023/03/10 02:09:25;;;;;;;24.65;16.40;;;;;;;;;;10328708;28;20463;-86
2023/03/10 02:14:27;;;;;;;26.55;17.25;;;;;;;;;;10328395;28;20405;-86
2023/03/10 02:19:45;;;;;;;27.33;17.10;;;;;;;;;;10328732;28;20419;-85
2023/03/10 02:24:52;;;;;;;26.15;17.27;;;;;;;;;;10326513;28;20507;-84
2023/03/10 02:30:00;;;;;;;28.45;18.10;;;;;;;;;;10328334;28;20421;-85
2023/03/10 02:35:02;;;;;;;29.33;16.80;;;;;;;;;;10325315;28;20858;-85
2023/03/10 02:40:28;;;;;;;26.10;17.13;;;;;;;;;;10326123;28;20422;-85
2023/03/10 02:45:33;;;;;;;27.35;16.73;;;;;;;;;;10326781;28;20411;-84
2023/03/10 02:50:37;;;;;;;28.33;17.10;;;;;;;;;;10327240;28;20887;-85
2023/03/10 02:55:39;;;;;;;28.20;17.30;;;;;;;;;;10323736;28;20429;-86
2023/03/10 03:00:45;;;;;;;28.80;17.20;;;;;;;;;;10325520;28;20408;-85
2023/03/10 03:05:48;;;;;;;25.95;16.13;;;;;;;;;;10327536;28;20459;-85
2023/03/10 03:10:50;;;;;;;26.17;16.57;;;;;;;;;;10324194;28;20417;-85
2023/03/10 03:15:53;;;;;;;26.75;15.82;;;;;;;;;;10325895;28;20807;-86
2023/03/10 03:20:55;;;;;;;26.33;16.33;;;;;;;;;;10325073;28;20757;-85
2023/03/10 03:25:57;;;;;;;29.05;16.70;;;;;;;;;;10325483;28;20413;-86
2023/03/10 03:31:00;;;;;;;28.63;17.25;;;;;;;;;;10323200;28;20438;-85
2023/03/10 03:36:02;;;;;;;29.75;17.27;;;;;;;;;;10327231;28;20437;-85
2023/03/10 03:41:05;;;;;;;27.20;17.40;;;;;;;;;;10326396;28;20413;-85
2023/03/10 03:46:08;;;;;;;26.50;16.80;;;;;;;;;;10326030;28;20910;-85
2023/03/10 03:51:10;;;;;;;26.50;16.50;;;;;;;;;;10325689;28;20431;-86
2023/03/10 03:56:11;;;;;;;27.23;16.55;;;;;;;;;;10325040;28;20436;-86
2023/03/10 04:01:15;;;;;;;27.63;16.60;;;;;;;;;;10325905;28;20413;-86
2023/03/10 04:06:16;;;;;;;25.60;15.67;;;;;;;;;;10324461;28;20405;-85
2023/03/10 04:11:18;;;;;;;25.30;16.10;;;;;;;;;;10325147;28;20475;-86
2023/03/10 04:16:22;;;;;;;24.52;15.80;;;;;;;;;;10324982;28;20442;-86
2023/03/10 04:21:23;;;;;;;27.37;16.20;;;;;;;;;;10325846;28;20420;-85
2023/03/10 04:26:25;;;;;;;26.77;16.40;;;;;;;;;;10325060;28;20432;-85
2023/03/10 04:31:29;;;;;;;23.80;16.00;;;;;;;;;;10328676;28;20405;-85
2023/03/10 04:36:31;;;;;;;26.95;15.75;;;;;;;;;;10333449;28;20432;-85
2023/03/10 04:41:33;;;;;;;25.35;15.65;;;;;;;;;;10332580;28;20424;-86
2023/03/10 04:46:36;;;;;;;26.27;16.10;;;;;;;;;;10333719;28;20503;-85
2023/03/10 04:51:38;;;;;;;25.70;16.57;;;;;;;;;;10332646;28;20447;-85
2023/03/10 04:56:40;;;;;;;27.15;16.55;;;;;;;;;;10329087;28;20888;-81
2023/03/10 05:01:43;;;;;;;24.53;16.20;;;;;;;;;;10332194;28;20436;-86
2023/03/10 05:06:45;;;;;;;26.33;17.17;;;;;;;;;;10332073;28;20416;-86
2023/03/10 05:11:47;;;;;;;28.30;16.98;;;;;;;;;;10330090;28;20420;-86
2023/03/10 05:16:50;;;;;;;26.83;16.40;;;;;;;;;;10331478;28;20436;-85
2023/03/10 05:21:53;;;;;;;26.90;16.33;;;;;;;;;;10331969;28;20433;-85
2023/03/10 05:26:55;;;;;;;29.98;17.80;;;;;;;;;;10329796;28;20413;-86
2023/03/10 05:31:58;;;;;;;26.45;16.27;;;;;;;;;;10329648;28;20492;-85
2023/03/10 05:37:00;;;;;;;28.25;16.35;;;;;;;;;;10330740;28;20823;-85
2023/03/10 05:42:03;;;;;;;25.87;16.30;;;;;;;;;;10328624;28;20891;-86
2023/03/10 05:47:06;;;;;;;28.02;17.23;;;;;;;;;;10330800;28;20420;-85
2023/03/10 05:52:08;;;;;;;29.40;16.48;;;;;;;;;;10345415;28;20435;-86
2023/03/10 05:57:10;;;;;;;27.92;16.88;;;;;;;;;;10326247;28;20427;-86
2023/03/10 06:02:13;;;;;;;29.73;18.10;;;;;;;;;;10328145;28;20537;-84
2023/03/10 06:07:15;;;;;;;29.45;17.52;;;;;;;;;;10325178;28;20934;-84
2023/03/10 06:12:17;;;;;;;27.92;16.77;;;;;;;;;;10328482;28;20899;-84
2023/03/10 06:17:20;;;;;;;27.35;16.25;;;;;;;;;;10328763;28;20530;-84
2023/03/10 06:22:22;;;;;;;25.65;15.05;;;;;;;;;;10328810;28;20492;-83
2023/03/10 06:27:24;;;;;;;24.77;13.90;;;;;;;;;;10327096;28;20492;-84
2023/03/10 06:32:27;;;;;;;24.30;14.05;;;;;;;;;;10328326;28;20424;-84
2023/03/10 06:37:29;;;;;;;20.42;13.85;;;;;;;;;;10327794;28;20437;-84
2023/03/10 06:42:32;;;;;;;21.00;12.40;;;;;;;;;;10324210;28;20416;-85
2023/03/10 06:47:36;;;;;;;21.70;12.77;;;;;;;;;;10326640;28;20484;-84
2023/03/10 06:52:38;;;;;;;20.55;12.18;;;;;;;;;;10325942;28;20412;-83
2023/03/10 06:57:40;;;;;;;20.63;12.73;;;;;;;;;;10313962;28;20520;-82
2023/03/10 07:02:43;;;;;;;21.80;12.48;;;;;;;;;;10326725;28;20459;-83
2023/03/10 07:07:45;;;;;;;18.60;11.85;;;;;;;;;;10326518;28;20786;-84
2023/03/10 07:12:53;;;;;;;19.38;11.60;;;;;;;;;;10325662;28;20804;-83
2023/03/10 07:17:57;;;;;;;19.37;11.83;;;;;;;;;;10324390;28;20428;-83
2023/03/10 07:22:59;;;;;;;25.37;12.07;;;;;;;;;;10326200;28;20418;-82
2023/03/10 07:28:01;;;;;;;23.65;12.73;;;;;;;;;;10325248;28;20413;-83
2023/03/10 07:33:04;;;;;;;17.83;11.10;;;;;;;;;;10321862;28;20876;-83
2023/03/10 07:38:06;;;;;;;18.95;12.13;;;;;;;;;;10323759;28;20460;-83
2023/03/10 07:43:08;;;;;;;17.35;11.50;;;;;;;;;;10324626;28;20413;-84
2023/03/10 07:48:11;;;;;;;21.08;11.35;;;;;;;;;;10326011;28;20464;-83
2023/03/10 07:53:13;;;;;;;19.13;11.07;;;;;;;;;;10311091;28;20506;-82
2023/03/10 07:58:15;;;;;;;18.95;10.90;;;;;;;;;;10315363;28;20440;-84
2023/03/10 08:03:18;;;;;;;16.77;10.20;;;;;;;;;;10323782;28;20488;-83
2023/03/10 08:08:20;;;;;;;18.90;10.10;;;;;;;;;;10322848;28;20447;-84
2023/03/10 08:13:22;;;;;;;17.00;9.73;;;;;;;;;;10323584;28;20492;-83
2023/03/10 08:18:25;;;;;;;13.43;8.70;;;;;;;;;;10323152;28;20895;-84
2023/03/10 08:23:27;;;;;;;13.10;9.43;;;;;;;;;;10322865;28;20424;-83
2023/03/10 08:28:30;;;;;;;14.05;8.07;;;;;;;;;;10318891;28;20428;-83
2023/03/10 08:33:33;;;;;;;14.07;7.87;;;;;;;;;;10315608;28;20835;-83
2023/03/10 08:38:36;;;;;;;15.10;8.20;;;;;;;;;;10317832;28;20440;-83
2023/03/10 08:43:39;;;;;;;11.50;7.07;;;;;;;;;;10315691;28;20456;-83
2023/03/10 08:48:42;;;;;;;11.05;6.75;;;;;;;;;;10319775;28;20467;-83
2023/03/10 08:53:46;;;;;;;19.15;7.70;;;;;;;;;;10314540;28;20420;-83
2023/03/10 08:58:48;;;;;;;12.68;7.38;;;;;;;;;;10317576;28;20424;-83
2023/03/10 09:03:51;;;;;;;12.77;7.40;;;;;;;;;;10317528;28;20909;-83
2023/03/10 09:08:53;;;;;;;15.10;6.60;;;;;;;;;;10320309;28;20539;-83
2023/03/10 09:13:55;;;;;;;12.25;6.90;;;;;;;;;;10320128;28;20420;-82
2023/03/10 09:18:59;;;;;;;12.18;7.30;;;;;;;;;;10324954;28;20428;-83
2023/03/10 09:24:02;;;;;;;13.85;7.07;;;;;;;;;;10340325;23;20419;-83
2023/03/10 09:29:04;;;;;;;12.73;7.87;;;;;;;;;;10363849;28;20418;-83
2023/03/10 09:34:08;;;;;;;11.02;6.32;;;;;;;;;;10363310;28;20407;-84
2023/03/10 09:39:10;;;;;;;13.40;6.70;;;;;;;;;;10358174;28;20982;-83
2023/03/10 09:44:25;;;;;;;13.48;6.50;;;;;;;;;;10362124;28;20832;-84
2023/03/10 09:49:33;;;;;;;13.02;6.72;;;;;;;;;;10360510;28;20406;-83
2023/03/10 09:54:55;;;;;;;14.25;6.90;;;;;;;;;;10356114;28;20477;-84
2023/03/10 10:00:01;;;;;;;12.10;6.22;;;;;;;;;;10360580;28;20927;-84
2023/03/10 10:05:12;;;;;;;10.52;5.60;;;;;;;;;;10361367;28;20409;-83
2023/03/10 10:10:18;;;;;;;9.67;5.40;;;;;;;;;;10356322;28;20407;-83
2023/03/10 10:15:21;;;;;;;11.45;5.30;;;;;;;;;;10365099;28;20433;-83
2023/03/10 10:20:32;;;;;;;8.77;4.97;;;;;;;;;;10360191;28;20437;-84
2023/03/10 10:25:37;;;;;;;8.95;4.47;;;;;;;;;;10356262;28;20933;-84
2023/03/10 10:30:40;;;;;;;9.35;4.25;;;;;;;;;;10360835;28;20469;-84
2023/03/10 10:35:46;;;;;;;12.00;4.90;;;;;;;;;;10358007;28;20535;-83
2023/03/10 10:40:50;;;;;;;10.55;5.25;;;;;;;;;;10353959;28;20892;-85
2023/03/10 10:45:54;;;;;;;9.90;4.80;;;;;;;;;;10361224;28;20406;-83
2023/03/10 10:50:57;;;;;;;12.57;4.87;;;;;;;;;;10352712;28;20411;-84
2023/03/10 10:56:03;;;;;;;15.03;4.87;;;;;;;;;;10357288;28;20439;-84
2023/03/10 11:01:07;;;;;;;8.50;4.27;;;;;;;;;;10360579;28;20431;-84
2023/03/10 11:06:26;;;;;;;9.83;4.60;;;;;;;;;;10353800;28;20574;-84
2023/03/10 11:11:35;;;;;;;10.50;5.22;;;;;;;;;;10358017;28;20513;-83
2023/03/10 11:16:46;;;;;;;11.23;6.05;;;;;;;;;;10357977;28;21102;-84
2023/03/10 11:21:55;;;;;;;11.13;6.00;;;;;;;;;;10355832;28;20399;-84
2023/03/10 11:27:03;;;;;;;12.57;5.30;;;;;;;;;;10358243;28;20427;-83
2023/03/10 11:32:17;;;;;;;13.83;6.13;;;;;;;;;;10343298;28;20772;-83
2023/03/10 11:37:28;;;;;;;11.53;5.90;;;;;;;;;;10344073;28;20451;-84
2023/03/10 11:42:36;;;;;;;10.95;6.47;;;;;;;;;;10343599;28;20413;-84
2023/03/10 11:47:50;;;;;;;11.97;6.60;;;;;;;;;;10344579;28;20454;-84
2023/03/10 11:53:00;;;;;;;12.27;6.30;;;;;;;;;;10345202;28;20504;-84
2023/03/10 11:58:04;;;;;;;13.60;6.00;;;;;;;;;;10349153;28;20499;-83
2023/03/10 12:03:15;;;;;;;12.38;5.43;;;;;;;;;;10346129;28;20416;-84
2023/03/10 12:08:19;;;;;;;9.95;5.40;;;;;;;;;;10338660;28;20475;-84
2023/03/10 12:13:25;;;;;;;11.53;5.70;;;;;;;;;;10353482;28;20416;-84
2023/03/10 12:18:27;;;;;;;9.05;5.00;;;;;;;;;;10348105;28;21032;-84
2023/03/10 12:23:39;;;;;;;10.83;6.17;;;;;;;;;;10331184;28;20416;-84
2023/03/10 12:28:41;;;;;;;11.25;6.00;;;;;;;;;;10360570;28;20417;-84
2023/03/10 12:33:46;;;;;;;13.50;6.17;;;;;;;;;;10341107;28;20526;-84
2023/03/10 12:38:52;;;;;;;11.87;6.23;;;;;;;;;;10344579;28;20803;-84
2023/03/10 12:43:57;;;;;;;11.07;6.15;;;;;;;;;;10338972;28;20418;-85
2023/03/10 12:49:11;;;;;;;10.77;5.37;;;;;;;;;;10343614;28;20417;-83
2023/03/10 12:54:37;;;;;;;10.97;5.20;;;;;;;;;;10354489;28;21281;-84
2023/03/10 12:59:43;;;;;;;10.50;5.82;;;;;;;;;;10356670;28;20422;-84
2023/03/10 13:04:46;;;;;;;9.07;4.87;;;;;;;;;;10361369;28;20433;-83
2023/03/10 13:09:50;;;;;;;9.87;5.27;;;;;;;;;;10361298;28;20792;-85
2023/03/10 13:14:56;;;;;;;9.65;5.15;;;;;;;;;;10359561;28;20411;-86
2023/03/10 13:20:03;;;;;;;9.02;4.70;;;;;;;;;;10361617;28;20468;-86
2023/03/10 13:25:13;;;;;;;7.03;4.20;;;;;;;;;;10364887;28;20499;-85
2023/03/10 13:30:18;;;;;;;9.23;4.47;;;;;;;;;;10365964;28;20442;-84
2023/03/10 13:35:26;;;;;;;7.72;4.60;;;;;;;;;;10358873;28;20420;-88
2023/03/10 13:40:30;;;;;;;8.63;4.97;;;;;;;;;;10363268;28;20868;-84
2023/03/10 13:45:33;;;;;;;11.38;5.30;;;;;;;;;;10366881;28;20777;-86
2023/03/10 13:50:35;;;;;;;12.75;5.30;;;;;;;;;;10363413;28;20482;-87
2023/03/10 13:55:41;;;;;;;11.80;5.30;;;;;;;;;;10367050;28;20487;-86
2023/03/10 14:00:49;;;;;;;9.05;5.72;;;;;;;;;;10366773;28;20935;-87
2023/03/10 14:05:51;;;;;;;10.67;6.00;;;;;;;;;;10361783;28;20416;-87
2023/03/10 14:10:54;;;;;;;9.85;6.03;;;;;;;;;;10363904;28;20427;-87
2023/03/10 14:15:56;;;;;;;12.47;6.40;;;;;;;;;;10356233;28;20411;-86
2023/03/10 14:20:58;;;;;;;13.65;6.57;;;;;;;;;;10354946;28;20438;-86
2023/03/10 14:26:01;;;;;;;10.98;5.82;;;;;;;;;;10354636;28;20450;-86
2023/03/10 14:31:05;;;;;;;8.80;5.13;;;;;;;;;;10363230;28;20966;-87
2023/03/10 14:36:10;;;;;;;15.07;5.13;;;;;;;;;;10353265;28;20490;-86
2023/03/10 14:41:14;;;;;;;13.10;4.60;;;;;;;;;;10362803;28;20438;-86
2023/03/10 14:46:16;;;;;;;9.20;4.55;;;;;;;;;;10357839;28;20413;-85
2023/03/10 14:51:19;;;;;;;9.70;4.50;;;;;;;;;;10349253;28;20496;-87
2023/03/10 14:56:22;;;;;;;9.70;4.28;;;;;;;;;;10357045;28;20425;-85
2023/03/10 15:01:24;;;;;;;12.13;5.20;;;;;;;;;;10349989;28;20421;-86
2023/03/10 15:06:26;;;;;;;9.57;5.35;;;;;;;;;;10345641;28;20412;-85
2023/03/10 15:11:29;;;;;;;10.90;5.20;;;;;;;;;;10359822;28;20515;-85
2023/03/10 15:16:31;;;;;;;10.65;5.93;;;;;;;;;;10360059;28;20506;-85
2023/03/10 15:21:33;;;;;;;17.25;8.75;;;;;;;;;;10362841;28;20431;-86
2023/03/10 15:26:37;;;;;;;11.30;6.88;;;;;;;;;;10355194;28;20423;-88
2023/03/10 15:31:38;;;;;;;14.13;7.68;;;;;;;;;;10359968;28;20403;-87
2023/03/10 15:36:41;;;;;;;12.77;8.20;;;;;;;;;;10344602;28;20405;-87
2023/03/10 15:41:44;;;;;;;15.27;7.80;;;;;;;;;;10349757;28;20489;-88
2023/03/10 15:46:49;;;;;;;12.05;7.13;;;;;;;;;;10333485;28;20492;-87
2023/03/10 15:51:51;;;;;;;13.02;6.93;;;;;;;;;;10339722;28;20499;-88
2023/03/10 15:56:54;;;;;;;12.02;6.88;;;;;;;;;;10353926;28;20743;-88
2023/03/10 16:01:56;;;;;;;12.03;7.70;;;;;;;;;;10355999;28;20437;-87
2023/03/10 16:07:02;;;;;;;10.60;6.80;;;;;;;;;;10342806;28;20915;-87
2023/03/10 16:12:06;;;;;;;12.98;8.23;;;;;;;;;;10350009;28;20414;-86
2023/03/10 16:17:08;;;;;;;11.50;7.20;;;;;;;;;;10350722;28;20487;-87
2023/03/10 16:22:10;;;;;;;13.60;8.00;;;;;;;;;;10352162;28;20423;-86
2023/03/10 16:27:13;;;;;;;15.38;7.70;;;;;;;;;;10356777;28;20416;-84
2023/03/10 16:32:16;;;;;;;12.77;7.90;;;;;;;;;;10363006;28;20407;-85
2023/03/10 16:37:18;;;;;;;15.27;8.02;;;;;;;;;;10368518;28;20438;-85
2023/03/10 16:42:21;;;;;;;16.83;8.15;;;;;;;;;;10364704;28;20434;-85
2023/03/10 16:47:23;;;;;;;14.82;7.55;;;;;;;;;;10355928;28;20398;-86
2023/03/10 16:52:25;;;;;;;16.13;8.23;;;;;;;;;;10364281;28;20941;-85
2023/03/10 16:57:28;;;;;;;12.70;7.43;;;;;;;;;;10363716;28;20788;-84
2023/03/10 17:02:30;;;;;;;12.93;7.78;;;;;;;;;;10352844;28;20494;-85
2023/03/10 17:07:32;;;;;;;15.87;7.90;;;;;;;;;;10358978;28;20405;-85
2023/03/10 17:12:36;;;;;;;14.13;7.65;;;;;;;;;;10353397;28;20419;-84
2023/03/10 17:17:38;;;;;;;11.95;8.32;;;;;;;;;;10347413;28;20891;-85
2023/03/10 17:22:40;;;;;;;14.45;8.10;;;;;;;;;;10350333;28;20469;-85
2023/03/10 17:27:43;;;;;;;17.15;7.20;;;;;;;;;;10351588;28;20901;-84
2023/03/10 17:32:48;;;;;;;15.32;7.93;;;;;;;;;;10356073;28;20462;-84
2023/03/10 17:37:50;;;;;;;14.30;7.28;;;;;;;;;;10357464;28;20407;-85
2023/03/10 17:42:53;;;;;;;12.52;7.53;;;;;;;;;;10350525;28;20913;-84
2023/03/10 17:47:55;;;;;;;16.52;9.52;;;;;;;;;;10344087;28;20917;-83
2023/03/10 17:52:56;;;;;;;17.03;10.83;;;;;;;;;;10348419;28;21011;-83
2023/03/10 17:57:59;;;;;;;20.00;10.93;;;;;;;;;;10343935;28;21077;-83
2023/03/10 18:03:02;;;;;;;18.67;10.40;;;;;;;;;;10342868;28;20515;-82
2023/03/10 18:08:04;;;;;;;22.30;13.00;;;;;;;;;;10345536;28;20434;-83
2023/03/10 18:13:10;;;;;;;19.30;12.00;;;;;;;;;;10350582;28;21209;-83
2023/03/10 18:18:13;;;;;;;21.15;10.15;;;;;;;;;;10341891;28;20931;-87
2023/03/10 18:23:16;;;;;;;22.75;11.32;;;;;;;;;;10345660;28;21230;-82
2023/03/10 18:28:22;;;;;;;19.90;11.37;;;;;;;;;;10351059;28;20468;-83
2023/03/10 18:33:25;;;;;;;21.48;11.30;;;;;;;;;;10336042;28;20411;-83
2023/03/10 18:38:28;;;;;;;18.83;10.73;;;;;;;;;;10344076;28;20428;-84
2023/03/10 18:43:33;;;;;;;21.48;11.25;;;;;;;;;;10332829;28;20427;-82
2023/03/10 18:48:35;;;;;;;21.20;12.60;;;;;;;;;;10335779;28;20923;-83
2023/03/10 18:53:39;;;;;;;21.10;13.20;;;;;;;;;;10345366;28;21050;-84
2023/03/10 18:58:43;;;;;;;21.73;12.93;;;;;;;;;;10335853;28;20441;-83
2023/03/10 19:03:46;;;;;;;21.15;13.07;;;;;;;;;;10344009;28;20824;-83
2023/03/10 19:08:49;;;;;;;24.30;13.15;;;;;;;;;;10344574;28;20573;-82
2023/03/10 19:13:54;;;;;;;24.07;12.80;;;;;;;;;;10343476;28;20423;-83
2023/03/10 19:18:56;;;;;;;23.48;12.95;;;;;;;;;;10336157;28;20435;-83
2023/03/10 19:23:58;;;;;;;32.28;20.20;;;;;;;;;;10349799;28;20501;-84
2023/03/10 19:29:01;;;;;;;31.00;17.00;;;;;;;;;;10344292;28;20828;-84
2023/03/10 19:34:03;;;;;;;33.97;17.17;;;;;;;;;;10328405;28;20779;-83
2023/03/10 19:39:05;;;;;;;28.33;15.63;;;;;;;;;;10341330;28;20425;-83
2023/03/10 19:44:09;;;;;;;22.10;13.57;;;;;;;;;;10326614;28;20420;-83
2023/03/10 19:49:11;;;;;;;25.17;14.13;;;;;;;;;;10337862;28;20419;-83
2023/03/10 19:54:13;;;;;;;25.20;15.10;;;;;;;;;;10338740;28;20436;-83
2023/03/10 19:59:16;;;;;;;24.08;14.65;;;;;;;;;;10324152;28;20433;-84
2023/03/10 20:04:18;;;;;;;26.90;15.52;;;;;;;;;;10335004;28;20924;-84
2023/03/10 20:09:21;;;;;;;26.30;16.23;;;;;;;;;;10342851;28;20425;-83
2023/03/10 20:14:25;;;;;;;32.37;17.40;;;;;;;;;;10341198;28;20927;-83
2023/03/10 20:19:27;;;;;;;28.80;18.40;;;;;;;;;;10328202;28;20478;-83
2023/03/10 20:24:29;;;;;;;31.40;18.63;;;;;;;;;;10339281;28;20431;-83
2023/03/10 20:29:33;;;;;;;29.77;18.80;;;;;;;;;;10335117;28;20419;-83
2023/03/10 20:34:34;;;;;;;31.10;18.73;;;;;;;;;;10347867;28;20431;-84
2023/03/10 20:39:36;;;;;;;29.65;18.15;;;;;;;;;;10347354;28;20852;-84
2023/03/10 20:44:40;;;;;;;25.20;17.37;;;;;;;;;;10343852;28;20406;-84
2023/03/10 20:49:42;;;;;;;23.80;15.80;;;;;;;;;;10351603;28;20423;-84
2023/03/10 20:54:44;;;;;;;22.75;14.57;;;;;;;;;;10348871;28;20407;-84
2023/03/10 20:59:47;;;;;;;20.73;12.65;;;;;;;;;;10331096;28;20449;-84
2023/03/10 21:04:49;;;;;;;17.23;12.20;;;;;;;;;;10337596;28;20484;-83
2023/03/10 21:09:51;;;;;;;18.75;10.60;;;;;;;;;;10346427;28;20573;-84
2023/03/10 21:14:54;;;;;;;18.75;10.05;;;;;;;;;;10347883;28;20422;-83
2023/03/10 21:19:56;;;;;;;14.13;9.10;;;;;;;;;;10356452;28;21040;-83
2023/03/10 21:24:58;;;;;;;13.45;8.60;;;;;;;;;;10356086;28;20429;-83
2023/03/10 21:30:02;;;;;;;14.73;8.77;;;;;;;;;;10348710;28;20414;-83
2023/03/10 21:35:05;;;;;;;13.75;7.68;;;;;;;;;;10355468;28;20917;-83
2023/03/10 21:40:09;;;;;;;13.13;8.40;;;;;;;;;;10354420;28;20424;-87
2023/03/10 21:45:14;;;;;;;13.10;7.78;;;;;;;;;;10350858;28;20404;-84
2023/03/10 21:50:17;;;;;;;13.63;8.15;;;;;;;;;;10350056;28;20406;-84
2023/03/10 21:55:21;;;;;;;14.73;8.27;;;;;;;;;;10355983;28;20918;-83
2023/03/10 22:00:25;;;;;;;17.00;9.27;;;;;;;;;;10348045;28;20437;-85
2023/03/10 22:05:29;;;;;;;13.98;8.80;;;;;;;;;;10351195;28;20562;-86
2023/03/10 22:10:31;;;;;;;15.40;8.70;;;;;;;;;;10342024;28;20420;-86
2023/03/10 22:15:34;;;;;;;15.35;9.05;;;;;;;;;;10351926;28;20477;-85
2023/03/10 22:20:46;;;;;;;;;;;;;;;;;;;;;
2023/03/10 22:25:48;;;;;;;14.80;9.30;;;;;;;;;;10345697;28;20417;-86
2023/03/10 22:30:51;;;;;;;14.10;9.07;;;;;;;;;;10349342;28;20425;-86
2023/03/10 22:35:53;;;;;;;13.73;8.98;;;;;;;;;;10352505;28;20416;-86
2023/03/10 22:40:55;;;;;;;15.73;9.00;;;;;;;;;;10350513;28;20494;-86
2023/03/10 22:46:07;;;;;;;18.80;9.55;;;;;;;;;;10358880;28;20457;-87
2023/03/10 22:51:11;;;;;;;15.77;9.77;;;;;;;;;;10359620;28;20789;-88
2023/03/10 22:56:13;;;;;;;18.92;10.85;;;;;;;;;;10353350;28;20509;-87
2023/03/10 23:01:16;;;;;;;15.38;9.68;;;;;;;;;;10353855;28;20423;-86
2023/03/10 23:06:19;;;;;;;15.00;8.63;;;;;;;;;;10345334;28;20418;-86
2023/03/10 23:11:21;;;;;;;14.77;8.30;;;;;;;;;;10338426;28;20416;-86
2023/03/10 23:16:24;;;;;;;12.57;8.07;;;;;;;;;;10350871;28;20494;-86
2023/03/10 23:21:26;;;;;;;12.00;8.40;;;;;;;;;;10353630;28;20431;-87
2023/03/10 23:26:29;;;;;;;12.73;8.40;;;;;;;;;;10345938;28;20408;-86
2023/03/10 23:31:32;;;;;;;17.60;8.07;;;;;;;;;;10338813;28;20447;-86
2023/03/10 23:36:34;;;;;;;14.07;8.30;;;;;;;;;;10342979;28;20412;-86
2023/03/10 23:41:36;;;;;;;14.23;8.65;;;;;;;;;;10334035;28;21081;-86
2023/03/10 23:46:39;;;;;;;14.98;8.20;;;;;;;;;;10345128;28;20499;-86
2023/03/10 23:51:41;;;;;;;14.60;8.70;;;;;;;;;;10342478;28;20415;-85
2023/03/10 23:56:43;;;;;;;14.63;8.27;;;;;;;;;;10332516;28;20413;-86
